Pagrindinis puslapis
METAR-TAF:

METAR-TAF

Oro uostai :

Belgradas, Serbija

platuma: 44-49N, ilguma: 020-17E, Aukštis: 96 m

Dabartinis oras

Ataskaita buvo paskelbta 37 minutes, ne 08:30 UTC
Vėjas 3 kt nuo kintamojo kryptimis
Temperatūra 0°C
Drėgmė 93%
Slėgis 1027 hPa
Matomumas: 2000 m
Apsiniaukę ne aukštis 200 ft
rūkana

METAR: LYBE 060830Z VRB03KT 2000 BR OVC002 M00/M01 Q1027 TEMPO 1000

Laikas: 10:07 (09:07 UTC)

Prognozė

Ataskaita buvo paskelbta 4 valandos ir 7 minutes, ne 05:00 UTC
Prognozė galioja nuo 06 metu 06 UTC su 07 metu 06 UTC
Vėjas 4 kt iš Vakarų/Pietvakarių
Matomumas: 3000 m
Apsiniaukę ne aukštis 400 ft
rūkana
Tikimybė 30% :
Laikinai
nuo 06 metu 06 UTC su 06 metu 08 UTC
Matomumas: 0800 m
Apsiniaukę ne aukštis 200 ft
įšaldymas rūko
Tapsmas
nuo 06 metu 10 UTC su 06 metu 12 UTC
Matomumas: 6000 m
Išsisklaidę debesys ne aukštis 1500 ft

TAF: LYBE 060500Z 0606/0706 24004KT 3000 BR OVC004 TX05/0613Z TNM02/0705Z PROB30 TEMPO 0606/0608 0800 FZFG OVC002 BECMG 0610/0612 6000 NSW SCT015

Orai ataskaitas ir orų prognozės (METAR, TAF).

turimą stotys yra geltonos ir raudonos taškus žemėlapyje.

Perkelti pele per norėdami pamatyti stoties vardą.

Tada spustelėkite, norėdami matyti oro stebėjimo ir prognozės.

Norėdami pakeisti žemėlapį: spustelėkite ant žalios mygtukų su juodo kryžiaus žemyn,; žalią mygtuką su brūkšneliu, jei norite nutolinti; arba žalių rodyklių gretimoms žemėlapius.


METAR-TAF: